Time;durP1;ratioP1;P1;durP2;ratioP2;P2;SDS_P1;SDS_P2;PMS_P1;PMS_P2;Temp;Humidity;BMP_temperature;BMP_pressure;BME280_temperature;BME280_humidity;BME280_pressure;Samples;Min_cycle;Max_cycle;Signal;HPM_P1;HPM_P2
2022/09/26 00:00:42;;;;;;;5.15;1.80;;;12.20;85.50;;;;;;5062937;28;20028;-75
2022/09/26 00:03:08;;;;;;;4.28;1.42;;;12.20;85.50;;;;;;5078833;28;20165;-76
2022/09/26 00:05:34;;;;;;;2.72;1.63;;;12.20;85.50;;;;;;5060442;28;20047;-76
2022/09/26 00:08:00;;;;;;;2.03;1.50;;;12.10;85.50;;;;;;5078791;28;20036;-76
2022/09/26 00:10:25;;;;;;;3.20;1.80;;;12.10;85.60;;;;;;5042103;28;20590;-76
2022/09/26 00:12:52;;;;;;;5.43;2.05;;;12.10;85.60;;;;;;5075583;28;20032;-76
2022/09/26 00:15:17;;;;;;;3.83;1.95;;;12.10;85.60;;;;;;5038806;28;20508;-75
2022/09/26 00:17:43;;;;;;;3.10;2.00;;;12.10;85.70;;;;;;5055069;28;20047;-77
2022/09/26 00:20:08;;;;;;;4.70;2.00;;;12.10;85.70;;;;;;5056787;28;20045;-76
2022/09/26 00:22:34;;;;;;;3.97;1.98;;;12.00;85.70;;;;;;5077057;28;20062;-76
2022/09/26 00:24:59;;;;;;;2.17;1.98;;;12.00;85.70;;;;;;5042122;28;20036;-76
2022/09/26 00:27:25;;;;;;;3.42;2.20;;;12.00;85.80;;;;;;5078312;28;20035;-76
2022/09/26 00:29:50;;;;;;;4.85;2.35;;;12.00;85.80;;;;;;5075791;28;20040;-76
2022/09/26 00:32:16;;;;;;;5.85;3.38;;;12.00;85.90;;;;;;5076225;28;20069;-76
2022/09/26 00:34:41;;;;;;;5.28;2.97;;;11.90;85.80;;;;;;5059069;28;20036;-76
2022/09/26 00:37:07;;;;;;;4.13;2.00;;;11.90;85.80;;;;;;5074258;28;20040;-76
2022/09/26 00:39:32;;;;;;;4.25;2.65;;;11.90;85.80;;;;;;5074893;28;20028;-75
2022/09/26 00:41:58;;;;;;;5.90;2.60;;;11.80;85.80;;;;;;5069887;28;20029;-76
2022/09/26 00:44:41;;;;;;;4.70;2.45;;;11.80;85.80;;;;;;5055416;28;20127;-75
2022/09/26 00:47:19;;;;;;;6.50;2.92;;;11.80;85.90;;;;;;5059248;28;20093;-75
2022/09/26 00:49:44;;;;;;;11.40;3.30;;;11.70;85.80;;;;;;5059507;28;20588;-75
2022/09/26 00:52:26;;;;;;;4.00;2.50;;;11.70;85.80;;;;;;5041551;28;20116;-76
2022/09/26 00:54:52;;;;;;;4.90;3.00;;;11.70;85.80;;;;;;5043501;28;20054;-76
2022/09/26 00:57:21;;;;;;;5.20;2.53;;;11.60;85.80;;;;;;5056323;28;20025;-76
2022/09/26 00:59:53;;;;;;;5.40;2.80;;;11.60;85.80;;;;;;5043765;28;20027;-76
2022/09/26 01:02:20;;;;;;;5.05;3.10;;;11.60;85.90;;;;;;5074491;28;20086;-76
2022/09/26 01:04:45;;;;;;;7.30;3.53;;;11.50;85.80;;;;;;5059122;28;20093;-75
2022/09/26 01:07:17;;;;;;;4.82;3.13;;;11.50;85.90;;;;;;5070398;28;20044;-76
2022/09/26 01:09:42;;;;;;;3.30;3.00;;;11.50;85.90;;;;;;5044012;28;20028;-77
2022/09/26 01:12:09;;;;;;;4.82;2.95;;;11.50;85.90;;;;;;5074125;28;20024;-75
2022/09/26 01:14:34;;;;;;;6.93;2.90;;;11.40;85.90;;;;;;5058778;28;20028;-75
2022/09/26 01:17:00;;;;;;;8.00;2.88;;;11.40;85.90;;;;;;5039573;28;20074;-75
2022/09/26 01:19:52;;;;;;;4.18;3.28;;;11.40;86.00;;;;;;5071252;28;20054;-75
2022/09/26 01:22:54;;;;;;;5.07;3.15;;;11.30;86.00;;;;;;5073451;28;20036;-76
2022/09/26 01:25:49;;;;;;;9.18;3.33;;;11.30;86.00;;;;;;5057336;28;20541;-76
2022/09/26 01:28:27;;;;;;;6.18;3.40;;;11.30;86.10;;;;;;5057017;28;20041;-76
2022/09/26 01:31:17;;;;;;;7.32;3.45;;;11.20;86.00;;;;;;5072413;28;20107;-76
2022/09/26 01:34:28;;;;;;;6.93;4.00;;;11.20;86.10;;;;;;5036621;28;20500;-77
2022/09/26 01:37:21;;;;;;;5.07;3.40;;;11.20;86.30;;;;;;5072648;28;20036;-76
2022/09/26 01:40:04;;;;;;;10.85;4.20;;;11.10;86.20;;;;;;5053565;28;20043;-76
2022/09/26 01:42:44;;;;;;;7.03;4.00;;;11.10;86.30;;;;;;5043621;28;20107;-75
2022/09/26 01:45:18;;;;;;;6.35;4.07;;;11.10;86.20;;;;;;5052734;28;20431;-74
2022/09/26 01:47:52;;;;;;;5.85;3.70;;;11.10;86.30;;;;;;5048542;28;20032;-75
2022/09/26 01:50:39;;;;;;;4.82;3.28;;;11.00;86.40;;;;;;5045520;28;20532;-76
2022/09/26 01:53:16;;;;;;;6.10;4.38;;;11.10;86.70;;;;;;5056956;28;20500;-76
2022/09/26 01:55:48;;;;;;;5.70;3.75;;;11.00;86.50;;;;;;5029460;28;20105;-75
2022/09/26 01:58:15;;;;;;;;;;;11.00;86.60;;;;;;5049280;28;20036;-75
2022/09/26 02:00:42;;;;;;;4.10;3.20;;;11.00;86.50;;;;;;5044736;28;19923;-77
2022/09/26 02:03:11;;;;;;;4.55;3.42;;;11.00;87.30;;;;;;5066498;28;20044;-76
2022/09/26 02:05:58;;;;;;;6.35;3.33;;;11.00;86.70;;;;;;5055293;28;20054;-75
2022/09/26 02:08:35;;;;;;;5.57;3.22;;;11.00;87.00;;;;;;5071033;28;20060;-76
2022/09/26 02:11:07;;;;;;;5.78;3.20;;;11.00;86.90;;;;;;5077750;28;20101;-76
2022/09/26 02:13:47;;;;;;;4.93;3.25;;;11.00;86.80;;;;;;5027975;28;20047;-77
2022/09/26 02:16:19;;;;;;;6.15;3.53;;;10.90;86.90;;;;;;5053960;28;20036;-75
2022/09/26 02:18:49;;;;;;;4.03;2.72;;;10.90;86.90;;;;;;5042411;28;20062;-76
2022/09/26 02:21:19;;;;;;;5.25;3.30;;;10.90;86.90;;;;;;5042050;28;20136;-76
2022/09/26 02:23:46;;;;;;;4.80;3.47;;;10.90;87.00;;;;;;5071239;28;20033;-76
2022/09/26 02:26:11;;;;;;;4.65;3.58;;;10.90;86.90;;;;;;5074173;28;20094;-76
2022/09/26 02:28:37;;;;;;;5.85;4.03;;;10.90;87.00;;;;;;5054031;28;20044;-76
2022/09/26 02:31:03;;;;;;;6.47;3.53;;;10.90;87.10;;;;;;5068512;28;20032;-76
2022/09/26 02:33:28;;;;;;;4.60;3.17;;;10.90;87.00;;;;;;5039698;28;20554;-75
2022/09/26 02:35:54;;;;;;;4.18;3.10;;;10.90;87.10;;;;;;5054119;28;20036;-77
2022/09/26 02:38:24;;;;;;;5.07;3.38;;;10.90;87.20;;;;;;5058456;28;20027;-76
2022/09/26 02:41:05;;;;;;;5.80;3.58;;;10.90;87.30;;;;;;5052546;28;20078;-76
2022/09/26 02:43:57;;;;;;;5.47;4.18;;;10.90;87.30;;;;;;5059050;28;20032;-75
2022/09/26 02:46:44;;;;;;;3.70;3.33;;;10.90;87.40;;;;;;5059914;28;20547;-75
2022/09/26 02:49:44;;;;;;;6.20;3.42;;;10.90;87.40;;;;;;5072712;28;20127;-75
2022/09/26 02:52:22;;;;;;;6.85;3.35;;;10.90;87.40;;;;;;5021450;28;20745;-75
2022/09/26 02:55:17;;;;;;;8.85;3.63;;;10.90;87.20;;;;;;5071253;28;20028;-75
2022/09/26 02:58:02;;;;;;;5.28;3.58;;;10.90;87.40;;;;;;5042512;28;20546;-75
2022/09/26 03:00:31;;;;;;;4.18;3.47;;;10.90;87.40;;;;;;5068572;28;20086;-75
2022/09/26 03:03:06;;;;;;;5.93;3.45;;;10.90;87.40;;;;;;5040757;28;20134;-75
2022/09/26 03:05:32;;;;;;;8.90;4.07;;;10.90;87.50;;;;;;5040600;28;20041;-76
2022/09/26 03:08:19;;;;;;;7.07;3.97;;;10.80;87.40;;;;;;5042788;28;20059;-76
2022/09/26 03:10:44;;;;;;;5.05;3.60;;;10.90;87.70;;;;;;5057178;28;20051;-75
2022/09/26 03:13:12;;;;;;;6.60;3.80;;;10.80;87.50;;;;;;5052964;28;20503;-75
2022/09/26 03:15:38;;;;;;;6.78;3.95;;;10.80;87.50;;;;;;5056077;28;20040;-76
2022/09/26 03:18:05;;;;;;;5.90;3.50;;;10.80;87.50;;;;;;5023641;28;20127;-77
2022/09/26 03:20:31;;;;;;;5.82;3.70;;;10.80;87.50;;;;;;5050996;28;20056;-76
2022/09/26 03:22:56;;;;;;;6.82;3.72;;;10.80;87.50;;;;;;5048221;28;20075;-76
2022/09/26 03:25:24;;;;;;;5.25;2.90;;;10.80;87.60;;;;;;5074492;28;20039;-76
2022/09/26 03:27:50;;;;;;;4.70;3.42;;;10.70;87.50;;;;;;5057067;28;20109;-75
2022/09/26 03:30:16;;;;;;;3.67;3.05;;;10.70;87.50;;;;;;5067635;28;20032;-75
2022/09/26 03:32:42;;;;;;;5.28;3.63;;;10.70;87.50;;;;;;5038061;28;20155;-76
2022/09/26 03:35:08;;;;;;;5.30;3.10;;;10.70;87.50;;;;;;5054505;28;20486;-77
2022/09/26 03:37:36;;;;;;;4.22;3.28;;;10.70;87.50;;;;;;5068995;28;20102;-77
2022/09/26 03:40:05;;;;;;;6.50;3.38;;;10.70;87.50;;;;;;5037912;28;20036;-76
2022/09/26 03:42:34;;;;;;;5.95;3.47;;;10.60;87.40;;;;;;5036330;28;20051;-75
2022/09/26 03:45:00;;;;;;;9.10;3.17;;;10.60;87.40;;;;;;5068573;28;20036;-75
2022/09/26 03:47:25;;;;;;;4.70;3.20;;;10.60;87.50;;;;;;5070365;28;20635;-76
2022/09/26 03:49:51;;;;;;;9.38;3.40;;;10.60;87.50;;;;;;5088053;28;20063;-76
2022/09/26 03:52:17;;;;;;;5.90;3.42;;;10.50;87.30;;;;;;5054775;28;20749;-76
2022/09/26 03:54:43;;;;;;;3.60;3.00;;;10.50;87.40;;;;;;5057403;28;20047;-76
2022/09/26 03:57:13;;;;;;;4.53;3.00;;;10.50;87.40;;;;;;5068240;28;20033;-76
2022/09/26 03:59:38;;;;;;;8.18;3.30;;;10.50;87.40;;;;;;5076416;28;20417;-76
2022/09/26 04:02:04;;;;;;;4.15;2.83;;;10.40;87.30;;;;;;5038297;28;20031;-76
2022/09/26 04:04:31;;;;;;;4.55;3.35;;;10.40;87.30;;;;;;5044085;28;20033;-75
2022/09/26 04:06:57;;;;;;;3.83;2.78;;;10.40;87.30;;;;;;5027413;28;21590;-76
2022/09/26 04:09:23;;;;;;;5.28;3.05;;;10.30;87.40;;;;;;5056083;28;20741;-76
2022/09/26 04:11:49;;;;;;;6.90;3.60;;;10.30;87.20;;;;;;5037765;28;20036;-75
2022/09/26 04:14:15;;;;;;;5.75;3.72;;;10.20;87.20;;;;;;5072128;28;20032;-77
2022/09/26 04:16:40;;;;;;;7.82;3.40;;;10.20;87.20;;;;;;5071461;28;20041;-75
2022/09/26 04:19:06;;;;;;;7.50;4.00;;;10.20;87.20;;;;;;5054743;28;20033;-76
2022/09/26 04:21:34;;;;;;;3.58;2.63;;;10.20;87.20;;;;;;5039173;28;20063;-75
2022/09/26 04:23:59;;;;;;;3.90;2.90;;;10.10;87.20;;;;;;5058016;28;20032;-75
2022/09/26 04:26:25;;;;;;;4.90;3.38;;;10.10;87.20;;;;;;5039756;28;20097;-76
2022/09/26 04:28:53;;;;;;;19.92;4.20;;;10.10;87.30;;;;;;5054919;28;20127;-76
2022/09/26 04:31:20;;;;;;;14.25;3.70;;;10.00;87.20;;;;;;5054730;28;20676;-75
2022/09/26 04:33:46;;;;;;;3.90;3.25;;;10.00;87.20;;;;;;5040650;28;20047;-76
2022/09/26 04:36:12;;;;;;;5.72;3.28;;;10.00;87.30;;;;;;5043065;28;20028;-76
2022/09/26 04:38:38;;;;;;;4.38;3.03;;;9.90;87.20;;;;;;5039265;28;20129;-76
2022/09/26 04:41:08;;;;;;;4.22;3.10;;;9.90;87.30;;;;;;5056650;28;20044;-75
2022/09/26 04:43:34;;;;;;;6.82;3.78;;;9.90;87.30;;;;;;5070723;28;20037;-76
2022/09/26 04:45:59;;;;;;;5.30;3.08;;;9.90;87.40;;;;;;5071456;28;20118;-75
2022/09/26 04:48:26;;;;;;;5.88;3.38;;;9.90;87.40;;;;;;5055068;28;20039;-75
2022/09/26 04:50:51;;;;;;;4.35;3.25;;;9.80;88.20;;;;;;5069737;28;20067;-76
2022/09/26 04:53:18;;;;;;;4.30;3.22;;;9.80;87.50;;;;;;5076171;28;20032;-75
2022/09/26 04:55:47;;;;;;;4.68;3.33;;;9.80;87.60;;;;;;5041268;28;20561;-75
2022/09/26 04:58:13;;;;;;;4.60;3.25;;;9.80;87.60;;;;;;5075105;28;20079;-76
2022/09/26 05:00:49;;;;;;;5.57;4.00;;;9.80;87.70;;;;;;5053721;28;20029;-75
2022/09/26 05:03:15;;;;;;;5.20;3.75;;;9.80;87.80;;;;;;5069514;28;20036;-76
2022/09/26 05:05:42;;;;;;;5.43;4.30;;;9.70;87.70;;;;;;5050225;28;20044;-76
2022/09/26 05:08:09;;;;;;;7.20;4.07;;;9.80;88.00;;;;;;5056177;28;20100;-74
2022/09/26 05:10:35;;;;;;;5.30;3.58;;;9.70;88.00;;;;;;5073445;28;20469;-76
2022/09/26 05:13:02;;;;;;;9.00;4.50;;;9.70;88.00;;;;;;5074233;28;20476;-75
2022/09/26 05:15:27;;;;;;;6.28;4.22;;;9.70;88.00;;;;;;5053580;28;20029;-75
2022/09/26 05:17:58;;;;;;;5.20;3.85;;;9.70;88.10;;;;;;5057466;28;20093;-75
2022/09/26 05:20:27;;;;;;;9.68;4.38;;;9.70;88.20;;;;;;5042565;28;20036;-75
2022/09/26 05:22:56;;;;;;;6.05;4.00;;;9.70;88.30;;;;;;5051532;28;20055;-75
2022/09/26 05:28:05;;;;;;;9.45;3.90;;;9.70;88.30;;;;;;5042345;28;21019;-75
2022/09/26 05:30:31;;;;;;;4.70;3.22;;;9.70;88.20;;;;;;5067242;28;20036;-75
2022/09/26 05:32:57;;;;;;;7.30;3.92;;;9.70;88.30;;;;;;5039795;28;20070;-75
2022/09/26 05:35:22;;;;;;;4.32;3.67;;;9.60;88.20;;;;;;5057590;28;20484;-76
2022/09/26 05:37:48;;;;;;;5.28;3.47;;;9.60;88.90;;;;;;5046912;28;20040;-74
2022/09/26 05:43:01;;;;;;;5.85;3.35;;;9.60;88.10;;;;;;5051853;28;21067;-76
2022/09/26 05:45:30;;;;;;;5.45;3.60;;;9.60;88.10;;;;;;5057106;28;20036;-76
2022/09/26 05:47:56;;;;;;;6.03;3.53;;;9.60;88.10;;;;;;5084571;28;20032;-75
2022/09/26 05:50:23;;;;;;;5.43;3.47;;;9.50;88.00;;;;;;5053111;28;20495;-75
2022/09/26 05:52:49;;;;;;;5.15;3.40;;;9.50;88.10;;;;;;5058512;28;20111;-75
2022/09/26 05:55:15;;;;;;;5.85;3.45;;;9.50;88.10;;;;;;5052979;28;20734;-75
2022/09/26 05:57:51;;;;;;;6.43;3.33;;;9.50;88.10;;;;;;5043588;28;20047;-76
2022/09/26 06:00:17;;;;;;;5.68;3.30;;;9.50;88.30;;;;;;5064455;28;20036;-74
2022/09/26 06:02:43;;;;;;;6.40;3.58;;;9.50;88.20;;;;;;5040448;28;20085;-75
2022/09/26 06:05:08;;;;;;;5.88;3.78;;;9.50;88.30;;;;;;5052822;28;20116;-74
2022/09/26 06:07:34;;;;;;;6.97;4.03;;;9.50;88.40;;;;;;5069450;28;20037;-75
2022/09/26 06:09:59;;;;;;;6.32;3.53;;;9.50;89.40;;;;;;5050506;28;20028;-75
2022/09/26 06:12:25;;;;;;;5.20;3.95;;;9.50;88.70;;;;;;5034076;28;20025;-75
2022/09/26 06:14:52;;;;;;;5.53;4.38;;;9.50;88.70;;;;;;5067486;28;20982;-75
2022/09/26 06:17:18;;;;;;;6.78;4.18;;;9.60;88.80;;;;;;5036179;28;20530;-75
2022/09/26 06:19:44;;;;;;;9.10;5.57;;;9.60;88.90;;;;;;5052765;28;20036;-76
2022/09/26 06:22:09;;;;;;;6.45;4.47;;;9.60;88.90;;;;;;5051586;28;20033;-75
2022/09/26 06:24:35;;;;;;;6.30;4.13;;;9.70;88.90;;;;;;5044393;28;20037;-74
2022/09/26 06:27:00;;;;;;;5.95;4.40;;;9.70;89.00;;;;;;5071287;28;20068;-75
2022/09/26 06:29:26;;;;;;;6.72;4.75;;;9.70;89.00;;;;;;5073837;28;20040;-76
2022/09/26 06:31:52;;;;;;;5.88;4.47;;;9.70;89.00;;;;;;5056205;28;20424;-75
2022/09/26 06:34:17;;;;;;;5.57;4.65;;;9.80;89.10;;;;;;5074952;28;20241;-75
2022/09/26 06:36:43;;;;;;;6.85;4.50;;;9.80;89.10;;;;;;5058240;28;20058;-75
2022/09/26 06:39:08;;;;;;;12.93;7.75;;;9.90;89.20;;;;;;5071164;28;20094;-75
2022/09/26 06:41:34;;;;;;;14.10;7.60;;;9.90;89.20;;;;;;5064530;28;20023;-75
2022/09/26 06:44:02;;;;;;;11.93;7.55;;;10.00;89.10;;;;;;5075402;28;20037;-75
2022/09/26 06:46:27;;;;;;;15.75;7.55;;;10.00;89.10;;;;;;5075440;28;20035;-74
2022/09/26 06:48:54;;;;;;;9.85;5.57;;;10.00;89.10;;;;;;5036027;28;20486;-75
2022/09/26 06:51:19;;;;;;;9.45;5.55;;;10.10;89.20;;;;;;5036959;28;20101;-75
2022/09/26 06:53:45;;;;;;;8.30;4.75;;;10.10;89.20;;;;;;5061035;28;20446;-76
2022/09/26 06:56:10;;;;;;;7.47;4.57;;;10.10;89.20;;;;;;5076109;28;20035;-75
2022/09/26 06:58:36;;;;;;;6.50;4.85;;;10.20;89.30;;;;;;5075673;28;20527;-74
2022/09/26 07:01:02;;;;;;;5.97;4.80;;;10.20;89.20;;;;;;5076560;28;20058;-75
2022/09/26 07:03:28;;;;;;;7.35;5.25;;;10.20;89.30;;;;;;5070994;28;20520;-75
2022/09/26 07:05:55;;;;;;;8.98;6.15;;;10.30;89.30;;;;;;5075450;28;20056;-76
2022/09/26 07:08:21;;;;;;;8.10;6.50;;;10.30;89.30;;;;;;5059516;28;20032;-75
2022/09/26 07:10:46;;;;;;;11.50;7.25;;;10.30;89.30;;;;;;5049297;28;20040;-76
2022/09/26 07:13:14;;;;;;;12.07;6.93;;;10.30;89.40;;;;;;5058132;28;20050;-76
2022/09/26 07:15:42;;;;;;;9.77;6.93;;;10.40;89.40;;;;;;5060044;28;20032;-76
2022/09/26 07:18:09;;;;;;;12.13;7.78;;;10.40;89.30;;;;;;5076669;28;20039;-76
2022/09/26 07:20:36;;;;;;;9.68;7.78;;;10.40;89.30;;;;;;5095819;27;20899;-75
2022/09/26 07:23:03;;;;;;;14.88;8.43;;;10.50;89.40;;;;;;5048223;28;20041;-76
2022/09/26 07:25:30;;;;;;;12.35;8.13;;;10.50;89.40;;;;;;5077297;28;20044;-75
2022/09/26 07:27:56;;;;;;;10.35;7.47;;;10.60;89.50;;;;;;5057198;28;20388;-75
2022/09/26 07:30:22;;;;;;;10.98;7.68;;;10.70;89.50;;;;;;5058277;28;20036;-75
2022/09/26 07:32:47;;;;;;;13.52;9.25;;;10.80;89.40;;;;;;5040042;28;20051;-76
2022/09/26 07:35:14;;;;;;;12.30;7.65;;;10.80;89.30;;;;;;5058093;28;20036;-75
2022/09/26 07:37:41;;;;;;;13.38;8.48;;;10.90;89.20;;;;;;5042489;28;20048;-76
2022/09/26 07:40:07;;;;;;;14.57;9.27;;;11.00;89.20;;;;;;5074475;28;20488;-76
2022/09/26 07:42:33;;;;;;;11.50;8.10;;;11.00;89.00;;;;;;5075877;28;20044;-75
2022/09/26 07:44:59;;;;;;;14.15;8.90;;;11.10;89.00;;;;;;5059127;28;20716;-75
2022/09/26 07:50:12;;;;;;;10.10;7.85;;;11.20;89.00;;;;;;5068569;28;20408;-75
2022/09/26 07:52:41;;;;;;;14.43;9.30;;;11.30;89.00;;;;;;5039163;28;20509;-76
2022/09/26 07:55:08;;;;;;;11.90;7.15;;;11.50;89.10;;;;;;5038766;28;20032;-76
2022/09/26 07:57:34;;;;;;;11.63;8.13;;;11.60;89.00;;;;;;5068584;28;20035;-75
2022/09/26 08:00:11;;;;;;;11.88;6.95;;;11.70;88.80;;;;;;5057407;28;20040;-76
2022/09/26 08:02:39;;;;;;;12.80;8.18;;;11.90;88.70;;;;;;5054477;28;20243;-75
2022/09/26 08:05:05;;;;;;;10.50;7.25;;;12.00;88.50;;;;;;5051373;28;20033;-75
2022/09/26 08:07:31;;;;;;;12.63;7.75;;;12.20;88.30;;;;;;5037503;28;20036;-75
2022/09/26 08:10:00;;;;;;;8.93;6.88;;;12.40;88.20;;;;;;5057426;28;20053;-76
2022/09/26 08:12:26;;;;;;;10.20;7.55;;;12.60;88.00;;;;;;5037322;28;20028;-76
2022/09/26 08:14:51;;;;;;;10.57;6.63;;;12.70;87.70;;;;;;5042481;28;20037;-76
2022/09/26 08:17:20;;;;;;;9.00;6.57;;;12.80;87.40;;;;;;5049573;28;20032;-76
2022/09/26 08:19:45;;;;;;;8.32;6.07;;;13.00;87.30;;;;;;5055705;28;20169;-76
2022/09/26 08:22:11;;;;;;;8.43;6.30;;;13.10;87.00;;;;;;5052075;28;20120;-76
2022/09/26 08:24:37;;;;;;;7.38;5.82;;;13.20;86.70;;;;;;5052442;28;22849;-76
2022/09/26 08:27:03;;;;;;;8.80;5.68;;;13.40;86.50;;;;;;5038123;28;20045;-76
2022/09/26 08:29:33;;;;;;;9.68;5.68;;;13.60;86.30;;;;;;5034357;28;20053;-76
2022/09/26 08:32:01;;;;;;;10.35;5.68;;;13.70;86.00;;;;;;5041520;28;20041;-76
2022/09/26 08:34:26;;;;;;;7.75;5.32;;;13.90;85.90;;;;;;5051694;28;20049;-76
2022/09/26 08:36:53;;;;;;;8.30;4.82;;;14.10;85.50;;;;;;5054857;28;20032;-76
2022/09/26 08:39:19;;;;;;;6.35;5.00;;;14.20;85.10;;;;;;5051474;28;20167;-76
2022/09/26 08:41:54;;;;;;;8.20;4.82;;;14.40;84.80;;;;;;5052736;28;20041;-76
2022/09/26 08:44:38;;;;;;;7.50;4.55;;;14.60;84.40;;;;;;5048180;28;20147;-78
2022/09/26 08:47:22;;;;;;;7.90;4.30;;;14.80;83.60;;;;;;5054243;28;20082;-76
2022/09/26 08:49:54;;;;;;;6.70;5.68;;;14.90;83.50;;;;;;5029221;28;20040;-77
2022/09/26 08:52:42;;;;;;;5.80;3.85;;;15.00;83.30;;;;;;5070333;28;20045;-75
2022/09/26 08:55:22;;;;;;;12.65;4.13;;;15.20;82.70;;;;;;5075092;28;20123;-76
2022/09/26 08:57:57;;;;;;;8.25;4.10;;;15.40;82.20;;;;;;5060773;28;20033;-78
2022/09/26 09:00:24;;;;;;;7.60;3.78;;;15.60;81.80;;;;;;5090393;28;20101;-75
2022/09/26 09:03:24;;;;;;;4.55;3.55;;;15.60;81.50;;;;;;5074712;28;20082;-78
2022/09/26 09:06:03;;;;;;;5.10;3.40;;;15.80;80.50;;;;;;5076537;28;20035;-76
2022/09/26 09:08:37;;;;;;;4.97;3.50;;;15.90;80.70;;;;;;5046219;28;20060;-77
2022/09/26 09:11:05;;;;;;;3.58;3.10;;;16.10;80.30;;;;;;5070511;28;20114;-76
2022/09/26 09:14:15;;;;;;;6.63;3.00;;;16.20;80.10;;;;;;5072250;28;20032;-76
2022/09/26 09:16:59;;;;;;;5.55;3.05;;;16.30;78.90;;;;;;5053958;28;20037;-77
2022/09/26 09:19:37;;;;;;;6.07;3.03;;;16.50;79.00;;;;;;5069905;28;20036;-76
2022/09/26 09:22:17;;;;;;;3.63;3.08;;;16.60;78.60;;;;;;5058865;28;20039;-76
2022/09/26 09:24:57;;;;;;;4.07;2.58;;;16.70;77.30;;;;;;5068223;28;20039;-76
2022/09/26 09:28:14;;;;;;;4.60;2.58;;;16.70;77.20;;;;;;5056225;28;20113;-77
2022/09/26 09:30:50;;;;;;;3.35;2.72;;;16.80;76.90;;;;;;5034881;28;20596;-77
2022/09/26 09:33:18;;;;;;;7.05;2.53;;;16.80;76.70;;;;;;5036253;28;20516;-76
2022/09/26 09:35:51;;;;;;;3.90;2.15;;;16.90;76.80;;;;;;5003744;28;20033;-77
2022/09/26 09:38:21;;;;;;;3.75;2.30;;;17.00;76.60;;;;;;5051129;28;20147;-78
2022/09/26 09:40:57;;;;;;;3.45;2.05;;;17.10;76.30;;;;;;5019460;28;20052;-77
2022/09/26 09:43:29;;;;;;;7.38;2.58;;;17.30;76.00;;;;;;5019691;28;20080;-76
2022/09/26 09:46:00;;;;;;;3.42;2.20;;;17.50;75.60;;;;;;5005733;28;20045;-77
2022/09/26 09:48:26;;;;;;;3.33;2.20;;;17.70;76.10;;;;;;5034698;28;20037;-76
2022/09/26 09:51:07;;;;;;;5.05;2.47;;;17.80;74.90;;;;;;5034959;28;20126;-77
2022/09/26 09:53:56;;;;;;;7.67;2.23;;;17.80;73.30;;;;;;5001525;28;20043;-76
2022/09/26 09:56:54;;;;;;;4.97;1.70;;;17.80;73.30;;;;;;5027003;28;20784;-76
2022/09/26 09:59:46;;;;;;;2.35;2.08;;;17.70;72.80;;;;;;5014559;28;20520;-77
2022/09/26 10:02:30;;;;;;;2.00;1.80;;;17.70;72.50;;;;;;5034281;28;20041;-77
2022/09/26 10:05:41;;;;;;;3.70;1.90;;;17.80;72.80;;;;;;5040614;28;20047;-76
2022/09/26 10:08:24;;;;;;;1.97;1.77;;;17.90;72.40;;;;;;5032355;28;20106;-77
2022/09/26 10:11:11;;;;;;;3.67;1.83;;;18.00;72.30;;;;;;5050836;28;20029;-77
2022/09/26 10:13:41;;;;;;;5.00;1.80;;;18.00;72.30;;;;;;5069758;28;20631;-77
2022/09/26 10:16:08;;;;;;;2.97;1.60;;;18.00;72.50;;;;;;5057640;28;20033;-76
2022/09/26 10:18:55;;;;;;;2.95;1.85;;;18.00;72.20;;;;;;5071025;28;20032;-77
2022/09/26 10:21:26;;;;;;;2.63;1.45;;;18.00;71.30;;;;;;5039761;28;20032;-76
2022/09/26 10:23:52;;;;;;;3.35;1.27;;;18.00;71.70;;;;;;5042953;28;20040;-76
2022/09/26 10:26:25;;;;;;;4.40;1.90;;;18.00;71.70;;;;;;5067258;28;20405;-76
2022/09/26 10:29:20;;;;;;;1.58;1.33;;;18.00;70.90;;;;;;5054786;28;20075;-77
2022/09/26 10:31:47;;;;;;;1.95;1.20;;;18.20;70.50;;;;;;5062871;28;20040;-77
2022/09/26 10:34:29;;;;;;;2.50;1.00;;;18.30;70.80;;;;;;5055360;28;20529;-77
2022/09/26 10:36:55;;;;;;;3.35;1.40;;;18.50;69.50;;;;;;5069993;28;20110;-77
2022/09/26 10:42:18;;;;;;;2.15;1.50;;;18.70;69.40;;;;;;5069771;28;20039;-77
2022/09/26 10:44:46;;;;;;;1.08;0.98;;;18.80;68.30;;;;;;5071880;28;20515;-77
2022/09/26 10:47:14;;;;;;;1.17;1.05;;;18.90;68.40;;;;;;5051354;28;20098;-77
2022/09/26 10:49:45;;;;;;;3.80;1.38;;;18.90;68.00;;;;;;5035354;28;20135;-77
2022/09/26 10:52:15;;;;;;;3.50;1.10;;;19.00;67.80;;;;;;5071368;28;20090;-77
2022/09/26 10:54:47;;;;;;;3.00;1.10;;;19.10;67.50;;;;;;5053612;28;20089;-76
2022/09/26 10:57:18;;;;;;;2.15;1.00;;;19.20;66.90;;;;;;5069701;28;20102;-77
2022/09/26 10:59:45;;;;;;;2.55;0.90;;;19.40;66.50;;;;;;5037667;28;20040;-77
2022/09/26 11:02:18;;;;;;;1.85;1.17;;;19.50;66.10;;;;;;5070234;28;20082;-77
2022/09/26 11:07:34;;;;;;;3.35;0.80;;;19.80;65.30;;;;;;5050941;28;20055;-76
2022/09/26 11:10:04;;;;;;;2.58;0.75;;;19.80;64.60;;;;;;5040930;28;20040;-77
2022/09/26 11:12:30;;;;;;;2.58;0.70;;;19.80;64.30;;;;;;5054044;28;20031;-76
2022/09/26 11:15:03;;;;;;;1.98;0.80;;;19.70;63.80;;;;;;5070973;28;21166;-77
2022/09/26 11:17:49;;;;;;;1.50;0.82;;;19.70;63.60;;;;;;5048772;28;20043;-77
2022/09/26 11:20:31;;;;;;;1.98;0.70;;;19.80;62.60;;;;;;5072824;28;20120;-77
2022/09/26 11:23:17;;;;;;;2.13;0.73;;;19.70;62.40;;;;;;5060388;28;20083;-77
2022/09/26 11:26:17;;;;;;;4.13;1.08;;;19.70;62.80;;;;;;5073277;28;20047;-77
2022/09/26 11:28:52;;;;;;;1.10;0.52;;;19.70;63.10;;;;;;5032062;28;20106;-76
2022/09/26 11:31:25;;;;;;;1.10;0.70;;;19.70;63.20;;;;;;5029532;28;20066;-76
2022/09/26 11:33:51;;;;;;;1.98;0.80;;;19.70;62.80;;;;;;5044472;28;20407;-77
2022/09/26 11:36:49;;;;;;;1.52;0.80;;;19.70;62.90;;;;;;5069916;28;20040;-77
2022/09/26 11:39:31;;;;;;;2.38;1.35;;;19.80;62.10;;;;;;5052311;28;20036;-78
2022/09/26 11:42:12;;;;;;;1.85;1.10;;;19.90;62.50;;;;;;5057901;28;20040;-77
2022/09/26 11:44:41;;;;;;;2.78;0.90;;;20.00;62.40;;;;;;5053422;28;20036;-76
2022/09/26 11:48:00;;;;;;;3.53;1.00;;;20.00;62.10;;;;;;5071145;28;20059;-77
2022/09/26 11:50:26;;;;;;;0.93;0.70;;;20.00;61.00;;;;;;4974779;28;20034;-77
2022/09/26 11:53:14;;;;;;;0.85;0.50;;;20.00;62.00;;;;;;4973821;28;20026;-76
2022/09/26 11:55:53;;;;;;;1.80;0.75;;;20.00;60.80;;;;;;4972681;28;20037;-78
2022/09/26 11:58:42;;;;;;;1.58;0.77;;;19.90;61.50;;;;;;4960722;28;20557;-77
2022/09/26 12:01:26;;;;;;;2.30;0.90;;;19.90;60.80;;;;;;4960425;28;20104;-76
2022/09/26 12:04:16;;;;;;;0.80;0.65;;;19.90;61.20;;;;;;4957540;28;20486;-77
2022/09/26 12:07:11;;;;;;;1.25;0.80;;;19.80;60.80;;;;;;4978145;28;20049;-77
2022/09/26 12:09:56;;;;;;;4.03;0.90;;;19.80;60.60;;;;;;4964157;28;20042;-76
2022/09/26 12:12:31;;;;;;;1.67;0.73;;;19.80;60.70;;;;;;4963023;28;20113;-76
2022/09/26 12:15:34;;;;;;;3.47;1.38;;;19.70;60.50;;;;;;4974775;28;20034;-76
2022/09/26 12:18:14;;;;;;;1.98;0.82;;;19.70;60.10;;;;;;4975745;28;20399;-76
2022/09/26 12:21:01;;;;;;;0.70;0.70;;;19.60;60.60;;;;;;4991035;28;20036;-76
2022/09/26 12:23:32;;;;;;;2.45;0.90;;;19.50;60.20;;;;;;5081179;28;20047;-78
2022/09/26 12:26:28;;;;;;;5.00;0.55;;;19.50;60.60;;;;;;5061874;28;20031;-77
2022/09/26 12:29:26;;;;;;;0.80;0.50;;;19.40;60.40;;;;;;5061725;28;20040;-76
2022/09/26 12:32:01;;;;;;;0.77;0.60;;;19.30;60.70;;;;;;5076856;28;20036;-77
2022/09/26 12:34:36;;;;;;;1.80;0.60;;;19.30;61.20;;;;;;5057278;28;21412;-74
2022/09/26 12:37:13;;;;;;;0.98;0.60;;;19.30;61.50;;;;;;5059075;28;20037;-77
2022/09/26 12:40:08;;;;;;;1.38;0.50;;;19.40;61.70;;;;;;5078017;28;20843;-78
2022/09/26 12:42:42;;;;;;;3.63;0.50;;;19.50;61.30;;;;;;5061384;28;20408;-76
2022/09/26 12:45:10;;;;;;;0.77;0.50;;;19.70;61.70;;;;;;5075958;28;20055;-77
2022/09/26 12:47:56;;;;;;;1.05;0.70;;;19.80;61.80;;;;;;5075705;28;20037;-76
2022/09/26 12:50:29;;;;;;;1.38;0.70;;;19.90;61.00;;;;;;5079514;28;20036;-77
2022/09/26 12:53:30;;;;;;;2.22;0.60;;;20.10;61.10;;;;;;5081879;28;20040;-77
2022/09/26 12:56:00;;;;;;;2.13;0.77;;;20.20;60.50;;;;;;5062650;28;20044;-76
2022/09/26 12:58:32;;;;;;;3.10;0.50;;;20.40;60.60;;;;;;5064127;28;20073;-76
2022/09/26 13:01:19;;;;;;;2.08;0.60;;;20.50;60.00;;;;;;5079824;28;20127;-77
2022/09/26 13:03:50;;;;;;;1.30;0.60;;;20.60;59.40;;;;;;5059142;28;20408;-77
2022/09/26 13:06:32;;;;;;;1.80;0.47;;;20.70;59.60;;;;;;5056455;28;20395;-76
2022/09/26 13:09:04;;;;;;;1.50;0.50;;;20.80;59.40;;;;;;5059304;28;20066;-77
2022/09/26 13:11:33;;;;;;;1.17;0.50;;;20.90;59.00;;;;;;5055368;28;20043;-77
2022/09/26 13:14:26;;;;;;;0.90;0.70;;;20.90;58.60;;;;;;5071612;28;20134;-76
2022/09/26 13:17:04;;;;;;;1.40;0.45;;;20.80;57.70;;;;;;5088116;28;20084;-76
2022/09/26 13:19:33;;;;;;;3.33;0.63;;;20.80;57.90;;;;;;5078168;28;20039;-77
2022/09/26 13:22:02;;;;;;;0.95;0.57;;;20.70;58.30;;;;;;5057388;28;20032;-74
2022/09/26 13:25:19;;;;;;;1.00;0.50;;;20.70;58.30;;;;;;5055541;28;20028;-74
2022/09/26 13:28:13;;;;;;;1.67;0.57;;;20.70;57.70;;;;;;5042439;28;20063;-76
2022/09/26 13:30:40;;;;;;;0.63;0.43;;;20.50;57.50;;;;;;5053081;28;20034;-76